Time;durP1;ratioP1;P1;durP2;ratioP2;P2;SDS_P1;SDS_P2;PMS_P1;PMS_P2;Temp;Humidity;BMP_temperature;BMP_pressure;BME280_temperature;BME280_humidity;BME280_pressure;Samples;Min_cycle;Max_cycle;Signal;HPM_P1;HPM_P2
2023/07/31 00:02:16;;;;;;;9.50;5.60;;;;;;;22.08;66.00;99813.95;105369;1257;65188;-64
2023/07/31 00:04:43;;;;;;;9.00;5.80;;;;;;;21.99;66.03;99811.10;105156;1260;61335;-65
2023/07/31 00:07:10;;;;;;;8.50;5.40;;;;;;;21.94;66.10;99808.44;105335;1261;63848;-65
2023/07/31 00:09:37;;;;;;;8.00;5.70;;;;;;;21.89;66.22;99809.23;105286;1257;60450;-67
2023/07/31 00:12:04;;;;;;;9.60;5.70;;;;;;;21.85;66.41;99806.31;105410;1257;60576;-65
2023/07/31 00:14:31;;;;;;;7.70;5.30;;;;;;;21.84;66.52;99805.05;105645;1260;65026;-65
2023/07/31 00:16:57;;;;;;;11.50;5.70;;;;;;;21.81;66.67;99803.48;105322;1261;61902;-62
2023/07/31 00:19:24;;;;;;;8.90;5.70;;;;;;;21.79;66.66;99804.32;105285;1258;64062;-66
2023/07/31 00:21:51;;;;;;;8.10;5.70;;;;;;;21.78;66.79;99802.02;105330;1257;60578;-66
2023/07/31 00:24:17;;;;;;;9.00;5.60;;;;;;;21.79;66.75;99801.65;105302;1260;60382;-65
2023/07/31 00:26:44;;;;;;;9.80;5.70;;;;;;;21.83;66.94;99799.52;105259;1260;60548;-67
2023/07/31 00:29:10;;;;;;;9.80;5.70;;;;;;;21.88;66.99;99793.79;105220;1261;60555;-64
2023/07/31 00:31:37;;;;;;;9.20;5.80;;;;;;;21.96;66.99;99788.23;105245;1261;62902;-64
2023/07/31 00:34:04;;;;;;;7.30;5.50;;;;;;;22.02;66.77;99784.71;105146;1256;60460;-65
2023/07/31 00:36:30;;;;;;;8.60;5.80;;;;;;;22.04;66.69;99786.23;107591;1257;59340;-64
2023/07/31 00:38:57;;;;;;;7.40;5.60;;;;;;;22.04;66.63;99787.88;105278;1261;65096;-64
2023/07/31 00:41:24;;;;;;;8.50;5.10;;;;;;;22.05;66.48;99790.17;105253;1257;60563;-65
2023/07/31 00:43:50;;;;;;;8.80;5.60;;;;;;;22.03;66.12;99790.35;105164;1261;63840;-62
2023/07/31 00:46:17;;;;;;;10.10;5.70;;;;;;;21.98;66.19;99789.64;105287;1262;60411;-65
2023/07/31 00:48:43;;;;;;;10.60;5.40;;;;;;;21.94;66.29;99789.98;105158;1261;60440;-63
2023/07/31 00:51:10;;;;;;;12.30;5.80;;;;;;;21.88;66.39;99790.46;105369;1259;65245;-64
2023/07/31 00:53:37;;;;;;;7.20;5.30;;;;;;;21.82;66.66;99793.52;104977;1260;61637;-64
2023/07/31 00:56:04;;;;;;;7.00;5.10;;;;;;;21.77;66.75;99794.32;105199;1261;64402;-63
2023/07/31 00:58:31;;;;;;;7.00;5.20;;;;;;;21.74;66.79;99794.58;105207;1258;60631;-64
2023/07/31 01:00:58;;;;;;;7.20;5.20;;;;;;;21.72;66.80;99796.35;105433;1258;60452;-65
2023/07/31 01:03:25;;;;;;;7.10;5.20;;;;;;;21.69;66.96;99795.20;105328;1257;65285;-66
2023/07/31 01:06:23;;;;;;;7.70;5.30;;;;;;;21.67;67.02;99796.48;106126;1254;61548;-64
2023/07/31 01:09:03;;;;;;;9.00;5.60;;;;;;;21.69;67.07;99800.56;105458;1257;64112;-66
2023/07/31 01:11:30;;;;;;;7.50;5.40;;;;;;;21.67;66.93;99804.30;105311;1254;60465;-65
2023/07/31 01:13:57;;;;;;;7.60;5.50;;;;;;;21.63;67.08;99805.27;105561;1254;60800;-65
2023/07/31 01:16:25;;;;;;;6.50;5.00;;;;;;;21.64;67.16;99804.29;105464;1258;65751;-65
2023/07/31 01:18:53;;;;;;;7.90;4.40;;;;;;;21.67;67.17;99805.59;105500;1254;61481;-64
2023/07/31 01:21:23;;;;;;;8.30;4.80;;;;;;;21.68;67.14;99805.51;105393;1259;64000;-65
2023/07/31 01:23:56;;;;;;;7.10;5.00;;;;;;;21.69;67.13;99805.09;105333;1259;61055;-65
2023/07/31 01:26:23;;;;;;;7.90;5.00;;;;;;;21.70;67.03;99803.04;105456;1257;60618;-63
2023/07/31 01:29:03;;;;;;;9.20;5.20;;;;;;;21.68;66.89;99807.92;105421;1259;65002;-64
2023/07/31 01:31:30;;;;;;;8.50;5.50;;;;;;;21.66;66.92;99806.50;105628;1255;61616;-65
2023/07/31 01:34:00;;;;;;;7.80;4.60;;;;;;;21.67;66.98;99806.34;105368;1260;64337;-64
2023/07/31 01:36:26;;;;;;;6.70;4.60;;;;;;;21.69;66.81;99807.77;105427;1254;60530;-65
2023/07/31 01:38:58;;;;;;;7.40;5.10;;;;;;;21.71;66.62;99805.30;105360;1254;60531;-65
2023/07/31 01:41:25;;;;;;;8.70;5.50;;;;;;;21.69;66.66;99805.17;105413;1257;65091;-61
2023/07/31 01:43:52;;;;;;;7.70;5.40;;;;;;;21.67;66.75;99805.02;105527;1254;62343;-63
2023/07/31 01:46:18;;;;;;;7.30;5.00;;;;;;;21.64;66.73;99802.10;105454;1257;63801;-64
2023/07/31 01:48:45;;;;;;;8.30;5.20;;;;;;;21.64;66.50;99798.52;105406;1254;60430;-64
2023/07/31 01:51:12;;;;;;;8.60;5.20;;;;;;;21.65;66.28;99801.11;105396;1260;60550;-64
2023/07/31 01:53:38;;;;;;;6.50;5.10;;;;;;;21.63;66.22;99801.14;105367;1258;64962;-65
2023/07/31 01:56:05;;;;;;;8.80;5.70;;;;;;;21.57;66.16;99801.30;105635;1254;61638;-65
2023/07/31 01:58:33;;;;;;;9.00;4.90;;;;;;;21.48;66.32;99801.42;105390;1258;64060;-64
2023/07/31 02:00:59;;;;;;;7.20;5.00;;;;;;;21.42;66.61;99801.48;105704;1254;60882;-65
2023/07/31 02:03:26;;;;;;;8.20;5.20;;;;;;;21.42;66.59;99801.36;105448;1254;60549;-63
2023/07/31 02:05:53;;;;;;;6.20;4.10;;;;;;;21.43;66.59;99800.95;105708;1257;65252;-64
2023/07/31 02:08:20;;;;;;;7.30;5.40;;;;;;;21.45;66.68;99803.46;105566;1254;61735;-64
2023/07/31 02:10:47;;;;;;;9.20;6.20;;;;;;;21.44;66.78;99805.48;105327;1254;64069;-65
2023/07/31 02:13:13;;;;;;;11.20;5.60;;;;;;;21.42;66.73;99804.13;105422;1261;60536;-66
2023/07/31 02:15:40;;;;;;;9.60;6.10;;;;;;;21.33;66.73;99803.30;105401;1257;60559;-65
2023/07/31 02:18:07;;;;;;;9.90;5.00;;;;;;;21.28;66.93;99803.52;105377;1257;64885;-64
2023/07/31 02:20:35;;;;;;;6.80;4.80;;;;;;;21.28;66.94;99802.13;105388;1256;61597;-64
2023/07/31 02:23:02;;;;;;;10.50;6.10;;;;;;;21.28;66.93;99796.28;105307;1254;63956;-64
2023/07/31 02:25:29;;;;;;;9.30;5.50;;;;;;;21.23;66.76;99789.54;105454;1254;60330;-66
2023/07/31 02:27:55;;;;;;;8.60;5.20;;;;;;;21.15;67.04;99787.77;105424;1254;60467;-66
2023/07/31 02:30:22;;;;;;;8.20;5.10;;;;;;;21.09;67.27;99786.98;105270;1259;65232;-66
2023/07/31 02:32:50;;;;;;;8.50;5.90;;;;;;;21.09;67.49;99788.06;105525;1254;61470;-64
2023/07/31 02:35:18;;;;;;;7.90;5.20;;;;;;;21.15;67.34;99790.64;105352;1257;63823;-67
2023/07/31 02:37:46;;;;;;;7.20;4.90;;;;;;;21.21;67.26;99792.73;105404;1254;60452;-65
2023/07/31 02:40:13;;;;;;;7.40;5.40;;;;;;;21.27;67.14;99792.29;105384;1254;60447;-65
2023/07/31 02:42:39;;;;;;;7.90;5.50;;;;;;;21.28;67.07;99790.10;105562;1258;65556;-64
2023/07/31 02:45:07;;;;;;;7.10;5.40;;;;;;;21.29;66.95;99794.72;105274;1257;61472;-65
2023/07/31 02:47:34;;;;;;;7.20;5.30;;;;;;;21.30;67.13;99789.15;105638;1257;64329;-66
2023/07/31 02:50:02;;;;;;;7.50;5.50;;;;;;;21.37;67.02;99793.42;105350;1257;60467;-66
2023/07/31 02:52:29;;;;;;;11.80;5.40;;;;;;;21.43;66.87;99800.13;105521;1254;60595;-66
2023/07/31 02:54:57;;;;;;;7.50;5.50;;;;;;;21.41;66.87;99805.53;105403;1254;64976;-63
2023/07/31 02:57:23;;;;;;;8.00;5.60;;;;;;;21.34;66.74;99812.61;105528;1253;62157;-59
2023/07/31 02:59:50;;;;;;;9.50;5.40;;;;;;;21.18;66.97;99815.60;105378;1257;64171;-61
2023/07/31 03:02:17;;;;;;;7.50;5.60;;;;;;;21.03;67.53;99812.42;105502;1253;60540;-62
2023/07/31 03:04:44;;;;;;;7.50;5.50;;;;;;;20.94;67.80;99810.57;105259;1254;61232;-61
2023/07/31 03:07:11;;;;;;;9.10;6.10;;;;;;;20.92;68.17;99808.30;105601;1257;65027;-61
2023/07/31 03:09:38;;;;;;;10.40;5.50;;;;;;;20.97;68.43;99811.20;105395;1254;61748;-63
2023/07/31 03:12:05;;;;;;;11.30;5.90;;;;;;;21.03;68.43;99813.52;105361;1257;64007;-61
2023/07/31 03:14:32;;;;;;;9.20;5.90;;;;;;;21.09;68.41;99818.02;105339;1254;60472;-63
2023/07/31 03:16:59;;;;;;;10.70;6.50;;;;;;;21.14;68.11;99823.40;105384;1254;60822;-64
2023/07/31 03:19:26;;;;;;;7.40;5.80;;;;;;;21.14;68.21;99821.80;105429;1253;65044;-64
2023/07/31 03:21:52;;;;;;;7.70;5.90;;;;;;;21.15;68.30;99817.36;105461;1257;61718;-59
2023/07/31 03:24:19;;;;;;;7.60;5.40;;;;;;;21.23;68.47;99811.95;105266;1257;64121;-61
2023/07/31 03:26:45;;;;;;;7.80;6.20;;;;;;;21.33;68.15;99807.21;105512;1253;60552;-62
2023/07/31 03:29:12;;;;;;;8.00;5.90;;;;;;;21.43;67.81;99807.14;105446;1254;60558;-63
2023/07/31 03:31:39;;;;;;;8.50;6.30;;;;;;;21.46;67.63;99809.35;105468;1257;65269;-62
2023/07/31 03:34:06;;;;;;;10.20;6.40;;;;;;;21.47;67.71;99808.21;105400;1254;61638;-59
2023/07/31 03:36:32;;;;;;;9.90;6.40;;;;;;;21.50;67.59;99811.85;105315;1257;64086;-62
2023/07/31 03:38:59;;;;;;;7.50;5.70;;;;;;;21.56;67.37;99817.35;105561;1254;60702;-65
2023/07/31 03:41:26;;;;;;;10.20;6.20;;;;;;;21.60;67.31;99820.27;105308;1255;60478;-60
2023/07/31 03:43:52;;;;;;;8.60;5.50;;;;;;;21.63;67.07;99825.04;105450;1253;60446;-62
2023/07/31 03:46:19;;;;;;;9.00;6.20;;;;;;;21.67;66.95;99824.91;105437;1254;60435;-63
2023/07/31 03:48:48;;;;;;;7.20;5.90;;;;;;;21.70;67.06;99826.10;105676;1254;64872;-63
2023/07/31 03:51:16;;;;;;;7.90;6.00;;;;;;;21.65;66.94;99822.36;105470;1253;60460;-62
2023/07/31 03:53:43;;;;;;;8.50;6.10;;;;;;;21.56;67.08;99821.80;105491;1254;60656;-64
2023/07/31 03:56:10;;;;;;;9.20;6.80;;;;;;;21.57;67.46;99820.98;105427;1254;63790;-67
2023/07/31 03:58:37;;;;;;;8.40;6.40;;;;;;;21.64;67.33;99822.20;105329;1255;61683;-61
2023/07/31 04:01:03;;;;;;;7.80;6.30;;;;;;;21.71;67.17;99824.52;105324;1254;64338;-61
2023/07/31 04:03:30;;;;;;;8.60;6.50;;;;;;;21.76;67.11;99828.70;105429;1254;59184;-63
2023/07/31 04:05:57;;;;;;;8.90;6.80;;;;;;;21.80;67.05;99829.24;105482;1253;60467;-64
2023/07/31 04:08:24;;;;;;;10.10;7.30;;;;;;;21.82;67.04;99837.32;105516;1258;65050;-62
2023/07/31 04:10:50;;;;;;;8.90;6.30;;;;;;;21.84;66.85;99841.09;105365;1254;60535;-62
2023/07/31 04:13:17;;;;;;;8.10;6.40;;;;;;;21.85;66.59;99850.12;105409;1257;64062;-63
2023/07/31 04:15:50;;;;;;;9.20;7.10;;;;;;;21.80;66.56;99853.31;105429;1257;60992;-60
2023/07/31 04:18:17;;;;;;;9.00;7.10;;;;;;;21.69;66.75;99854.98;105437;1257;61013;-62
2023/07/31 04:20:44;;;;;;;10.50;7.60;;;;;;;21.63;67.44;99854.90;105288;1258;60543;-60
2023/07/31 04:23:11;;;;;;;10.10;7.50;;;;;;;21.67;67.70;99853.98;105318;1257;61512;-64
2023/07/31 04:25:38;;;;;;;9.60;7.20;;;;;;;21.71;67.59;99846.86;105462;1255;64066;-61
2023/07/31 04:28:05;;;;;;;9.10;7.50;;;;;;;21.73;67.78;99846.16;105362;1254;60952;-65
2023/07/31 04:30:32;;;;;;;9.80;7.80;;;;;;;21.82;67.74;99843.70;105363;1253;60464;-66
2023/07/31 04:32:58;;;;;;;9.10;6.50;;;;;;;21.94;67.69;99847.79;105385;1257;67428;-65
2023/07/31 04:35:25;;;;;;;8.40;6.90;;;;;;;22.04;67.50;99850.77;105050;1253;351490;-68
2023/07/31 04:40:42;;;;;;;9.80;7.60;;;;;;;21.91;68.19;99855.42;102296;1295;600304;-69
2023/07/31 04:43:09;;;;;;;9.60;7.50;;;;;;;22.15;67.43;99855.88;108340;1267;57254;-67
2023/07/31 04:45:37;;;;;;;12.50;8.30;;;;;;;22.21;67.25;99861.80;107888;1267;57135;-65
2023/07/31 04:48:04;;;;;;;10.00;7.30;;;;;;;22.24;66.86;99870.52;104332;1273;63318;-61
2023/07/31 04:50:32;;;;;;;13.00;7.70;;;;;;;22.22;66.82;99874.04;104345;1267;61321;-67
2023/07/31 04:53:00;;;;;;;9.50;7.80;;;;;;;22.16;66.89;99869.33;108365;1267;63700;-67
2023/07/31 04:55:27;;;;;;;10.50;8.20;;;;;;;22.17;67.38;99867.76;104974;1264;197487;-67
2023/07/31 04:57:55;;;;;;;11.50;7.80;;;;;;;22.26;67.42;99868.35;104474;1269;59328;-65
2023/07/31 05:00:22;;;;;;;8.90;7.50;;;;;;;22.36;67.34;99869.02;104770;1264;63225;-65
2023/07/31 05:02:50;;;;;;;11.80;7.70;;;;;;;22.42;67.11;99871.17;104917;1264;61351;-66
2023/07/31 05:05:18;;;;;;;12.20;7.80;;;;;;;22.50;66.79;99872.89;106957;1264;71816;-67
2023/07/31 05:07:45;;;;;;;10.50;7.20;;;;;;;22.56;66.77;99874.22;104941;1266;59736;-66
2023/07/31 05:10:13;;;;;;;10.20;7.60;;;;;;;22.61;66.71;99879.77;104920;1260;59737;-66
2023/07/31 05:12:40;;;;;;;10.70;8.80;;;;;;;22.65;66.79;99884.36;105313;1260;64195;-66
2023/07/31 05:15:09;;;;;;;13.90;9.50;;;;;;;22.69;66.66;99889.88;105344;1257;61393;-65
2023/07/31 05:17:36;;;;;;;11.70;9.80;;;;;;;22.69;66.52;99892.55;105385;1262;63909;-67
2023/07/31 05:20:05;;;;;;;11.50;9.00;;;;;;;22.68;66.54;99892.89;105228;1260;59763;-66
2023/07/31 05:22:33;;;;;;;12.20;8.90;;;;;;;22.68;66.62;99895.08;105348;1261;59555;-63
2023/07/31 05:25:00;;;;;;;12.40;10.30;;;;;;;22.69;66.62;99895.71;105259;1262;63058;-61
2023/07/31 05:27:28;;;;;;;11.70;9.60;;;;;;;22.72;66.77;99895.70;105329;1254;61370;-65
2023/07/31 05:29:55;;;;;;;11.20;9.30;;;;;;;22.75;67.04;99896.35;105366;1257;64253;-64
2023/07/31 05:32:23;;;;;;;12.10;10.20;;;;;;;22.79;67.04;99895.88;105178;1263;59645;-63
2023/07/31 05:34:52;;;;;;;11.00;9.10;;;;;;;22.83;66.93;99899.52;105583;1257;59535;-60
2023/07/31 05:37:19;;;;;;;12.90;10.40;;;;;;;22.89;66.79;99896.33;105214;1256;64048;-59
2023/07/31 05:39:47;;;;;;;13.40;9.40;;;;;;;22.93;66.66;99895.48;105303;1258;61364;-58
2023/07/31 05:42:15;;;;;;;11.20;10.10;;;;;;;22.99;66.82;99897.20;105315;1257;63719;-60
2023/07/31 05:44:42;;;;;;;12.10;10.10;;;;;;;23.02;66.86;99899.61;105198;1257;59813;-62
2023/07/31 05:47:10;;;;;;;13.50;11.50;;;;;;;23.04;67.03;99903.06;105304;1258;59571;-67
2023/07/31 05:49:38;;;;;;;21.50;17.30;;;;;;;23.05;66.85;99901.21;105376;1257;64163;-68
2023/07/31 05:52:06;;;;;;;22.50;18.00;;;;;;;23.04;66.57;99902.48;105309;1257;61352;-69
2023/07/31 05:54:33;;;;;;;14.00;12.50;;;;;;;23.04;66.77;99903.73;105666;1258;65399;-57
2023/07/31 05:57:01;;;;;;;13.30;11.00;;;;;;;23.06;66.96;99903.08;105296;1257;59745;-60
2023/07/31 05:59:29;;;;;;;23.50;21.10;;;;;;;23.12;67.03;99901.23;105193;1263;59698;-60
2023/07/31 06:01:57;;;;;;;20.10;17.50;;;;;;;23.17;66.73;99899.39;105289;1262;64103;-59
2023/07/31 06:04:25;;;;;;;17.10;14.90;;;;;;;23.18;66.49;99902.34;105210;1257;61348;-57
2023/07/31 06:06:53;;;;;;;17.10;14.00;;;;;;;23.16;66.56;99907.02;105316;1261;63695;-57
2023/07/31 06:09:20;;;;;;;15.50;12.90;;;;;;;23.13;66.77;99906.55;105158;1258;60928;-59
2023/07/31 06:11:48;;;;;;;14.10;11.40;;;;;;;23.15;66.76;99904.88;105254;1257;59657;-58
2023/07/31 06:14:15;;;;;;;13.70;12.30;;;;;;;23.18;66.56;99905.52;105324;1257;64109;-58
2023/07/31 06:16:44;;;;;;;16.40;14.30;;;;;;;23.22;66.44;99907.31;105317;1258;62004;-58
2023/07/31 06:19:12;;;;;;;16.70;14.20;;;;;;;23.25;66.24;99906.96;105534;1260;62587;-61
2023/07/31 06:21:41;;;;;;;19.50;15.80;;;;;;;23.23;66.17;99905.98;105382;1257;59634;-58
2023/07/31 06:24:09;;;;;;;25.60;22.30;;;;;;;23.19;66.32;99906.14;105406;1260;59695;-56
2023/07/31 06:26:36;;;;;;;16.20;14.50;;;;;;;23.17;66.59;99906.89;105253;1257;64121;-56
2023/07/31 06:29:05;;;;;;;13.60;12.20;;;;;;;23.17;66.39;99906.06;105254;1261;61559;-55
2023/07/31 06:31:32;;;;;;;14.70;12.50;;;;;;;23.16;66.32;99905.23;105208;1258;63772;-60
2023/07/31 06:34:00;;;;;;;14.90;12.80;;;;;;;23.15;66.62;99904.51;105283;1258;59810;-60
2023/07/31 06:36:27;;;;;;;15.40;13.80;;;;;;;23.15;66.79;99912.08;105309;1257;59746;-59
2023/07/31 06:38:55;;;;;;;15.90;14.00;;;;;;;23.18;66.55;99915.72;105227;1258;73028;-57
2023/07/31 06:41:23;;;;;;;12.20;10.90;;;;;;;23.22;66.47;99914.59;105055;1262;60166;-61
2023/07/31 06:43:51;;;;;;;12.10;10.60;;;;;;;23.24;66.31;99911.27;105298;1263;63819;-60
2023/07/31 06:46:19;;;;;;;13.30;11.10;;;;;;;23.27;65.89;99912.03;105064;1260;59731;-60
2023/07/31 06:48:46;;;;;;;13.60;10.30;;;;;;;23.28;65.91;99912.06;105172;1257;59755;-58
2023/07/31 06:51:14;;;;;;;12.40;10.00;;;;;;;23.30;66.00;99911.80;105169;1260;64653;-59
2023/07/31 06:53:42;;;;;;;11.50;9.90;;;;;;;23.39;66.25;99916.11;105128;1257;61885;-58
2023/07/31 06:56:10;;;;;;;12.50;9.70;;;;;;;23.47;65.87;99916.98;105308;1258;63754;-59
2023/07/31 06:58:38;;;;;;;11.70;10.00;;;;;;;23.55;65.70;99913.20;105194;1258;59672;-57
2023/07/31 07:01:05;;;;;;;10.20;9.00;;;;;;;23.62;65.30;99914.71;105135;1263;59858;-58
2023/07/31 07:03:33;;;;;;;12.90;10.90;;;;;;;23.67;64.76;99915.51;105026;1260;62894;-57
2023/07/31 07:06:00;;;;;;;15.10;12.80;;;;;;;23.67;64.47;99915.95;105344;1258;61395;-57
2023/07/31 07:08:28;;;;;;;14.40;11.10;;;;;;;23.63;64.70;99912.27;104975;1263;62535;-56
2023/07/31 07:10:56;;;;;;;14.50;12.60;;;;;;;23.66;64.84;99915.00;105118;1262;59599;-57
2023/07/31 07:13:23;;;;;;;14.60;12.10;;;;;;;23.70;64.71;99915.02;105206;1257;59849;-66
2023/07/31 07:15:51;;;;;;;15.80;14.00;;;;;;;23.74;64.67;99917.13;105222;1257;62961;-65
2023/07/31 07:18:19;;;;;;;20.30;13.90;;;;;;;23.74;64.66;99918.33;105154;1257;61305;-68
2023/07/31 07:20:50;;;;;;;17.40;15.60;;;;;;;23.75;64.76;99919.89;105494;1259;63812;-64
2023/07/31 07:23:18;;;;;;;16.90;15.10;;;;;;;23.75;64.79;99918.66;105254;1257;59637;-65
2023/07/31 07:25:46;;;;;;;16.90;13.60;;;;;;;23.80;64.74;99918.61;105574;1261;60400;-66
2023/07/31 07:28:14;;;;;;;15.70;13.70;;;;;;;23.88;64.47;99921.58;105367;1258;64143;-65
2023/07/31 07:30:41;;;;;;;18.40;15.40;;;;;;;23.96;64.27;99923.86;105034;1262;60221;-66
2023/07/31 07:33:09;;;;;;;13.70;12.30;;;;;;;24.02;64.18;99926.14;105144;1260;64304;-59
2023/07/31 07:35:36;;;;;;;14.10;11.90;;;;;;;24.08;64.28;99921.20;105203;1257;59750;-55
2023/07/31 07:38:04;;;;;;;12.70;11.00;;;;;;;24.17;64.01;99923.23;104956;1263;59506;-57
2023/07/31 07:40:31;;;;;;;12.60;9.90;;;;;;;24.24;63.26;99916.52;105216;1260;64143;-57
2023/07/31 07:43:00;;;;;;;12.00;10.70;;;;;;;24.28;62.96;99918.88;105139;1262;60095;-54
2023/07/31 07:45:27;;;;;;;12.10;10.00;;;;;;;24.32;62.86;99914.91;105166;1262;62528;-60
2023/07/31 07:47:55;;;;;;;13.20;11.60;;;;;;;24.36;62.97;99910.52;105032;1263;59721;-55
2023/07/31 07:50:23;;;;;;;11.00;9.60;;;;;;;24.42;62.80;99903.79;105120;1257;60578;-57
2023/07/31 07:52:51;;;;;;;10.50;8.90;;;;;;;24.48;62.59;99905.11;105228;1258;64239;-57
2023/07/31 07:55:18;;;;;;;13.80;10.90;;;;;;;24.54;62.14;99906.67;105229;1258;60132;-58
2023/07/31 07:57:46;;;;;;;11.60;10.10;;;;;;;24.55;61.87;99907.66;105151;1260;63723;-60
2023/07/31 08:00:13;;;;;;;12.80;10.30;;;;;;;24.55;61.79;99906.59;105696;1257;59720;-69
2023/07/31 08:02:42;;;;;;;11.80;10.30;;;;;;;24.51;61.77;99906.70;105323;1263;60384;-67
2023/07/31 08:05:10;;;;;;;12.30;10.20;;;;;;;24.49;61.53;99911.84;105163;1262;64075;-60
2023/07/31 08:07:38;;;;;;;11.60;10.20;;;;;;;24.49;61.52;99917.06;105285;1261;61364;-65
2023/07/31 08:10:06;;;;;;;12.60;9.80;;;;;;;24.50;61.79;99918.66;104973;1260;63729;-67
2023/07/31 08:12:33;;;;;;;13.70;10.90;;;;;;;24.53;61.97;99921.57;105246;1257;60611;-66
2023/07/31 08:15:01;;;;;;;12.00;10.50;;;;;;;24.55;61.89;99926.29;105251;1257;59849;-55
2023/07/31 08:17:29;;;;;;;11.90;9.90;;;;;;;24.57;61.86;99922.71;105207;1260;64682;-55
2023/07/31 08:19:58;;;;;;;13.20;9.90;;;;;;;24.66;61.94;99924.08;105315;1260;60505;-57
2023/07/31 08:22:26;;;;;;;10.90;9.40;;;;;;;24.77;61.94;99918.88;105222;1259;63704;-57
2023/07/31 08:24:53;;;;;;;11.80;9.80;;;;;;;24.89;61.53;99922.54;105304;1260;59742;-56
2023/07/31 08:27:20;;;;;;;12.30;11.10;;;;;;;24.98;61.08;99925.59;105209;1260;59772;-56
2023/07/31 08:29:48;;;;;;;12.40;11.10;;;;;;;25.05;60.62;99928.67;105273;1262;64159;-54
2023/07/31 08:32:15;;;;;;;20.10;10.60;;;;;;;25.05;60.41;99931.20;105103;1258;61367;-55
2023/07/31 08:34:43;;;;;;;11.80;10.10;;;;;;;25.03;60.45;99933.25;105212;1264;62474;-54
2023/07/31 08:37:11;;;;;;;11.00;9.80;;;;;;;25.07;60.27;99936.31;105147;1258;59739;-55
2023/07/31 08:39:39;;;;;;;11.80;9.90;;;;;;;25.12;59.52;99932.60;105258;1257;59768;-59
2023/07/31 08:42:10;;;;;;;10.90;9.80;;;;;;;25.15;59.68;99929.66;105110;1257;64117;-57
2023/07/31 08:44:37;;;;;;;12.30;9.50;;;;;;;25.19;60.19;99924.66;105229;1257;61385;-57
2023/07/31 08:47:05;;;;;;;11.60;10.10;;;;;;;25.25;60.08;99922.85;104982;1264;62489;-57
2023/07/31 08:49:33;;;;;;;10.80;8.90;;;;;;;25.33;59.72;99925.52;105118;1256;60565;-58
2023/07/31 08:52:01;;;;;;;10.60;9.20;;;;;;;25.40;59.61;99934.73;105077;1257;60479;-58
2023/07/31 08:54:30;;;;;;;12.80;10.00;;;;;;;25.45;59.39;99935.66;105302;1262;64884;-60
2023/07/31 08:56:59;;;;;;;11.30;9.70;;;;;;;25.49;59.46;99938.20;105140;1262;61617;-56
2023/07/31 08:59:31;;;;;;;10.80;9.10;;;;;;;25.54;59.56;99940.42;105065;1260;65111;-58
2023/07/31 09:02:05;;;;;;;10.80;9.00;;;;;;;25.60;59.27;99945.42;105199;1262;60560;-67
2023/07/31 09:04:33;;;;;;;10.20;8.70;;;;;;;25.67;59.30;99946.34;105134;1260;60370;-68
2023/07/31 09:07:04;;;;;;;8.30;7.20;;;;;;;25.76;59.19;99945.78;105050;1257;63631;-64
2023/07/31 09:09:32;;;;;;;10.20;8.10;;;;;;;25.85;58.98;99947.91;105250;1262;60625;-58
2023/07/31 09:11:59;;;;;;;11.40;8.00;;;;;;;25.89;58.11;99944.84;105128;1260;63724;-59
2023/07/31 09:14:27;;;;;;;9.70;7.90;;;;;;;25.92;57.56;99940.23;105015;1262;61324;-56
2023/07/31 09:16:55;;;;;;;10.30;8.30;;;;;;;25.91;57.34;99940.08;105080;1259;60134;-56
2023/07/31 09:19:33;;;;;;;8.70;7.60;;;;;;;25.89;57.31;99944.19;105250;1262;63649;-56
2023/07/31 09:22:01;;;;;;;10.70;7.50;;;;;;;25.86;57.27;99943.16;105012;1260;62476;-60
2023/07/31 09:24:33;;;;;;;10.50;8.30;;;;;;;25.88;57.40;99942.88;105684;1260;63751;-59
2023/07/31 09:27:01;;;;;;;9.60;7.90;;;;;;;25.89;57.36;99940.16;104858;1260;60513;-59
2023/07/31 09:29:29;;;;;;;8.70;7.60;;;;;;;25.87;57.18;99944.38;105236;1258;60549;-60
2023/07/31 09:31:57;;;;;;;10.20;7.10;;;;;;;25.85;57.38;99948.36;105281;1257;63661;-59
2023/07/31 09:34:39;;;;;;;10.70;7.80;;;;;;;25.84;57.65;99950.11;105215;1257;61461;-59
2023/07/31 09:37:06;;;;;;;9.40;7.10;;;;;;;25.83;57.00;99955.43;105144;1260;63701;-61
2023/07/31 09:39:45;;;;;;;8.30;6.10;;;;;;;25.84;56.47;99957.88;104885;1262;60537;-59
2023/07/31 09:42:13;;;;;;;9.60;6.30;;;;;;;25.86;56.06;99953.52;105257;1257;60467;-60
2023/07/31 09:44:40;;;;;;;9.20;6.10;;;;;;;25.86;55.57;99951.83;105234;1257;64872;-57
2023/07/31 09:47:24;;;;;;;8.90;6.00;;;;;;;25.84;54.92;99947.52;105380;1257;61375;-58
2023/07/31 09:49:53;;;;;;;8.20;6.40;;;;;;;25.82;54.93;99946.30;105307;1257;63722;-59
2023/07/31 09:52:22;;;;;;;11.00;7.40;;;;;;;25.83;55.12;99940.89;105284;1257;60574;-59
2023/07/31 09:54:49;;;;;;;9.30;6.70;;;;;;;25.85;55.32;99937.16;105217;1262;60448;-58
2023/07/31 09:57:17;;;;;;;9.00;6.90;;;;;;;25.88;55.29;99932.69;105077;1257;63661;-57
2023/07/31 09:59:47;;;;;;;8.50;6.90;;;;;;;25.89;55.07;99936.23;105251;1257;62092;-57
2023/07/31 10:02:15;;;;;;;7.70;6.70;;;;;;;25.91;55.10;99936.80;105253;1258;62529;-60
2023/07/31 10:04:43;;;;;;;8.00;6.50;;;;;;;26.00;55.29;99936.42;105114;1258;60880;-61
2023/07/31 10:07:14;;;;;;;10.70;6.90;;;;;;;26.12;54.95;99932.77;105128;1260;61652;-63
2023/07/31 10:09:42;;;;;;;11.80;6.20;;;;;;;26.23;54.91;99932.94;105477;1257;63873;-62
2023/07/31 10:12:09;;;;;;;10.00;7.40;;;;;;;26.35;54.69;99932.94;104939;1257;61380;-56
2023/07/31 10:14:38;;;;;;;9.40;6.50;;;;;;;26.47;53.79;99931.89;105231;1257;63761;-58
2023/07/31 10:17:06;;;;;;;9.10;7.10;;;;;;;26.55;53.67;99933.00;105206;1261;60478;-59
2023/07/31 10:19:34;;;;;;;8.40;6.30;;;;;;;26.63;53.49;99935.71;105132;1257;60559;-59
2023/07/31 10:22:02;;;;;;;8.60;6.80;;;;;;;26.68;53.12;99937.02;105457;1259;64938;-58
2023/07/31 10:24:30;;;;;;;9.70;7.30;;;;;;;26.73;52.72;99937.81;105380;1257;61386;-58
2023/07/31 10:26:58;;;;;;;9.40;7.40;;;;;;;26.75;52.57;99938.83;105056;1257;63719;-57
2023/07/31 10:29:25;;;;;;;9.50;7.70;;;;;;;26.78;52.15;99940.35;105108;1257;61593;-62
2023/07/31 10:31:53;;;;;;;10.20;8.20;;;;;;;26.79;51.68;99939.83;105599;1257;60498;-56
2023/07/31 10:34:20;;;;;;;12.10;8.60;;;;;;;26.81;51.17;99938.95;104698;1265;64954;-55
2023/07/31 10:36:49;;;;;;;13.10;8.30;;;;;;;26.81;51.07;99938.34;105020;1257;61378;-55
2023/07/31 10:39:36;;;;;;;11.20;8.00;;;;;;;26.83;51.42;99940.11;105019;1257;63687;-55
2023/07/31 10:42:13;;;;;;;10.30;7.70;;;;;;;26.86;51.52;99940.01;104898;1257;60451;-55
2023/07/31 10:44:46;;;;;;;12.40;8.60;;;;;;;26.91;51.15;99940.31;104917;1260;60435;-55
2023/07/31 10:47:17;;;;;;;11.00;8.20;;;;;;;26.96;50.87;99946.77;107639;1259;65387;-57
2023/07/31 10:49:46;;;;;;;9.60;7.50;;;;;;;27.06;50.79;99947.92;105228;1257;61340;-55
2023/07/31 10:52:13;;;;;;;9.30;7.30;;;;;;;27.16;50.47;99950.05;105300;1258;63796;-55
2023/07/31 10:54:41;;;;;;;9.60;7.50;;;;;;;27.22;49.77;99949.95;105220;1257;60911;-58
2023/07/31 10:57:21;;;;;;;12.40;8.20;;;;;;;27.23;49.76;99953.48;105161;1258;60667;-54
2023/07/31 10:59:50;;;;;;;10.70;8.00;;;;;;;27.25;50.07;99951.46;105275;1257;64032;-58
2023/07/31 11:02:31;;;;;;;9.70;7.70;;;;;;;27.28;49.70;99946.55;105370;1260;60529;-59
2023/07/31 11:05:11;;;;;;;9.50;7.40;;;;;;;27.31;49.67;99941.80;105435;1257;64710;-56
2023/07/31 11:07:49;;;;;;;9.90;6.80;;;;;;;27.37;49.63;99942.77;105405;1257;60534;-57
2023/07/31 11:10:18;;;;;;;8.20;6.30;;;;;;;27.39;48.94;99940.36;105366;1260;60447;-57
2023/07/31 11:12:46;;;;;;;8.60;6.70;;;;;;;27.37;48.92;99938.22;105111;1260;64949;-56
2023/07/31 11:15:14;;;;;;;9.60;7.60;;;;;;;27.36;48.70;99930.65;105212;1257;60575;-57
2023/07/31 11:17:41;;;;;;;10.40;6.40;;;;;;;27.39;48.70;99928.10;105310;1257;63764;-56
2023/07/31 11:20:10;;;;;;;8.60;6.80;;;;;;;27.43;48.47;99927.63;105231;1257;60638;-56
2023/07/31 11:22:38;;;;;;;7.50;5.90;;;;;;;27.44;47.95;99929.98;105561;1260;60443;-55
2023/07/31 11:25:06;;;;;;;8.00;6.40;;;;;;;27.45;48.07;99928.20;105127;1261;64914;-57
2023/07/31 11:27:39;;;;;;;8.00;6.20;;;;;;;27.49;47.59;99925.07;105314;1258;61316;-56